Time;durP1;ratioP1;P1;durP2;ratioP2;P2;SDS_P1;SDS_P2;PMS_P1;PMS_P2;Temp;Humidity;BMP_temperature;BMP_pressure;BME280_temperature;BME280_humidity;BME280_pressure;Samples;Min_cycle;Max_cycle;Signal;HPM_P1;HPM_P2
2021/08/25 00:03:46;;;;;;;12.9;10;;;;;;;10.54;100;99174.09;;;;
2021/08/25 00:13:45;;;;;;;13.1;10.6;;;;;;;10.64;100;99173.13;;;;
2021/08/25 00:23:45;;;;;;;14.5;9.1;;;;;;;10.38;100;99162.72;;;;
2021/08/25 00:33:44;;;;;;;13.8;7.5;;;;;;;10.26;100;99156.99;;;;
2021/08/25 00:43:43;;;;;;;11.9;9.1;;;;;;;10.2;100;99144.69;;;;
2021/08/25 00:53:42;;;;;;;10.6;8;;;;;;;10.17;100;99136.39;;;;
2021/08/25 01:03:41;;;;;;;12.2;10;;;;;;;10.15;100;99133.17;;;;
2021/08/25 01:13:41;;;;;;;8.7;7.2;;;;;;;10.04;100;99135.98;;;;
2021/08/25 01:23:40;;;;;;;13.6;8.9;;;;;;;10.11;100;99117.56;;;;
2021/08/25 01:33:39;;;;;;;8.6;6.9;;;;;;;9.94;100;99114.58;;;;
2021/08/25 01:43:38;;;;;;;14.1;9.6;;;;;;;9.86;100;99120.59;;;;
2021/08/25 01:53:37;;;;;;;10.5;7.9;;;;;;;9.71;100;99117.31;;;;
2021/08/25 02:03:36;;;;;;;9.6;8;;;;;;;9.64;100;99100.72;;;;
2021/08/25 02:13:35;;;;;;;9.3;8;;;;;;;9.63;100;99104.48;;;;
2021/08/25 02:23:34;;;;;;;13.1;11;;;;;;;9.69;100;99097.95;;;;
2021/08/25 02:33:33;;;;;;;11.4;9;;;;;;;9.61;100;99085.95;;;;
2021/08/25 02:43:33;;;;;;;9.9;7.3;;;;;;;9.36;100;99086.27;;;;
2021/08/25 02:53:32;;;;;;;8.8;6.7;;;;;;;9.42;100;99079.72;;;;
2021/08/25 03:03:31;;;;;;;11.5;7.6;;;;;;;9.38;100;99067.93;;;;
2021/08/25 03:13:30;;;;;;;9.7;7.3;;;;;;;9.28;100;99066.17;;;;
2021/08/25 03:23:29;;;;;;;7.7;4.5;;;;;;;9.08;100;99072.59;;;;
2021/08/25 03:33:28;;;;;;;7.1;5.1;;;;;;;8.99;100;99081.54;;;;
2021/08/25 03:43:27;;;;;;;6.9;5.2;;;;;;;8.92;100;99078.41;;;;
2021/08/25 03:53:26;;;;;;;7.8;5.1;;;;;;;8.82;100;99063.17;;;;
2021/08/25 04:03:25;;;;;;;9.5;4.8;;;;;;;9.02;100;99062.17;;;;
2021/08/25 04:13:24;;;;;;;9.8;5.2;;;;;;;9.19;100;99067.09;;;;
2021/08/25 04:23:23;;;;;;;6.6;4.2;;;;;;;9.28;100;99059.98;;;;
2021/08/25 04:33:22;;;;;;;8.5;5.5;;;;;;;9.63;100;99059.55;;;;
2021/08/25 04:43:21;;;;;;;9.5;5.6;;;;;;;10.02;100;99054.69;;;;
2021/08/25 04:53:20;;;;;;;6.3;4.9;;;;;;;10.18;100;99049.09;;;;
2021/08/25 05:03:19;;;;;;;6.3;4;;;;;;;10.49;100;99047.5;;;;
2021/08/25 05:13:18;;;;;;;6.9;3.7;;;;;;;10.93;100;99036.22;;;;
2021/08/25 05:23:17;;;;;;;10.4;4.4;;;;;;;11.69;100;99037.37;;;;
2021/08/25 05:33:16;;;;;;;7.4;4.6;;;;;;;11.8;100;99031.45;;;;
2021/08/25 05:43:17;;;;;;;7.4;4.1;;;;;;;12.32;100;99031.88;;;;
2021/08/25 05:53:15;;;;;;;9;5;;;;;;;12.45;100;99028.3;;;;
2021/08/25 06:03:16;;;;;;;7.8;4.6;;;;;;;12.83;100;99037.59;;;;
2021/08/25 06:13:16;;;;;;;9.8;4.5;;;;;;;12.83;100;99037.59;;;;
2021/08/25 06:23:17;;;;;;;13.4;5.5;;;;;;;13.07;100;99056.16;;;;
2021/08/25 06:33:13;;;;;;;15;5.8;;;;;;;13.25;100;99054.34;;;;
2021/08/25 06:43:13;;;;;;;9.9;5.7;;;;;;;14.21;100;99052.27;;;;
2021/08/25 06:53:12;;;;;;;11.2;6.6;;;;;;;14.13;100;99049.58;;;;
2021/08/25 07:03:12;;;;;;;8.4;5.3;;;;;;;14.5;100;99041.59;;;;
2021/08/25 07:13:12;;;;;;;8.1;4.8;;;;;;;14.06;100;99039.19;;;;
2021/08/25 07:23:12;;;;;;;9;4.8;;;;;;;14.27;100;99032;;;;
2021/08/25 07:33:16;;;;;;;14.8;5.5;;;;;;;14.47;100;99020.52;;;;
2021/08/25 07:43:12;;;;;;;10.1;5.1;;;;;;;14.88;100;99017.23;;;;
2021/08/25 07:53:13;;;;;;;10;5.7;;;;;;;15.3;100;99012.73;;;;
2021/08/25 08:03:12;;;;;;;9.9;5.3;;;;;;;15.8;100;98999.16;;;;
2021/08/25 08:13:16;;;;;;;11.6;5.7;;;;;;;15.97;100;98998.22;;;;
2021/08/25 08:23:12;;;;;;;11.3;4.8;;;;;;;16.28;100;98982.26;;;;
2021/08/25 08:33:12;;;;;;;9.6;5.7;;;;;;;15.66;100;98965.21;;;;
2021/08/25 08:43:14;;;;;;;12.6;6.4;;;;;;;15.37;100;98963.33;;;;
2021/08/25 08:53:14;;;;;;;17.5;5.9;;;;;;;15.32;100;98952.64;;;;
2021/08/25 09:03:19;;;;;;;10.7;5.6;;;;;;;15.99;100;98942.41;;;;
2021/08/25 09:13:15;;;;;;;8.6;6;;;;;;;16.6;100;98928.98;;;;
2021/08/25 09:23:23;;;;;;;7.1;5.2;;;;;;;16.33;100;98926.86;;;;
2021/08/25 09:33:12;;;;;;;8.2;5.5;;;;;;;16.67;100;98912.88;;;;
2021/08/25 09:43:12;;;;;;;10.1;6.5;;;;;;;17.22;100;98903.31;;;;
2021/08/25 09:53:25;;;;;;;10.8;6.4;;;;;;;17.4;100;98904.65;;;;
2021/08/25 10:03:12;;;;;;;9.9;5.7;;;;;;;17.24;99.62305;98884.72;;;;
2021/08/25 10:13:12;;;;;;;10.2;4.6;;;;;;;16.82;99.9043;98867.87;;;;
2021/08/25 10:23:16;;;;;;;9.1;5.8;;;;;;;17.87;88.48828;98870.23;;;;
2021/08/25 10:33:16;;;;;;;7;5.1;;;;;;;18.59;97.53906;98857.28;;;;
2021/08/25 10:43:12;;;;;;;10.7;6.2;;;;;;;17.52;83.04395;98855.58;;;;
2021/08/25 10:53:20;;;;;;;11.3;7.4;;;;;;;17.55;86.3916;98844.78;;;;
2021/08/25 11:03:09;;;;;;;10.6;6.6;;;;;;;17.52;86.28027;98828.33;;;;
2021/08/25 11:13:09;;;;;;;6.8;3.8;;;;;;;17.42;85.62305;98802.34;;;;
2021/08/25 11:23:09;;;;;;;10;6.8;;;;;;;18.43;83.87891;98789.02;;;;
2021/08/25 11:33:10;;;;;;;10.8;7.4;;;;;;;18.89;77.5791;98786.58;;;;
2021/08/25 11:43:13;;;;;;;9.3;6;;;;;;;17.83;83.57129;98787.54;;;;
2021/08/25 11:53:10;;;;;;;7.2;5.3;;;;;;;18.2;84.34082;98766.25;;;;
2021/08/25 12:03:10;;;;;;;11.1;8.1;;;;;;;18.32;75.78027;98765.38;;;;
2021/08/25 12:13:10;;;;;;;15.3;9.3;;;;;;;18.61;77.20996;98748.52;;;;
2021/08/25 12:23:10;;;;;;;10.6;7.8;;;;;;;18.22;75.56836;98735.9;;;;
2021/08/25 12:33:10;;;;;;;12.8;9.3;;;;;;;18.7;83.12598;98731.95;;;;
2021/08/25 12:43:10;;;;;;;15.7;9.3;;;;;;;18.45;77.21582;98713.05;;;;
2021/08/25 12:53:11;;;;;;;10.5;9.1;;;;;;;18.88;75.70215;98703.09;;;;
2021/08/25 13:03:11;;;;;;;14.3;8.7;;;;;;;18.33;74.79297;98699.52;;;;
2021/08/25 13:13:11;;;;;;;11.9;9.5;;;;;;;18.09;76.4541;98681.43;;;;
2021/08/25 13:23:11;;;;;;;12.1;9.8;;;;;;;18;82.79199;98669.92;;;;
2021/08/25 13:33:11;;;;;;;11;8.1;;;;;;;17.89;86.99316;98662.63;;;;
2021/08/25 13:43:11;;;;;;;11;7.6;;;;;;;18.64;85.57031;98644.06;;;;
2021/08/25 13:53:11;;;;;;;12.9;9.3;;;;;;;18.91;76.59375;98631.35;;;;
2021/08/25 14:03:12;;;;;;;10.2;7.2;;;;;;;19.21;73.73242;98632.3;;;;
2021/08/25 14:13:12;;;;;;;13.9;9.2;;;;;;;20.11;74.63184;98622.46;;;;
2021/08/25 14:23:12;;;;;;;16;9.6;;;;;;;21.25;75.38867;98609.02;;;;
2021/08/25 14:33:12;;;;;;;13;10.2;;;;;;;20.39;71.28223;98584.56;;;;
2021/08/25 14:43:13;;;;;;;11;7.8;;;;;;;21.32;65.36719;98586.36;;;;
2021/08/25 14:53:13;;;;;;;14.6;9.6;;;;;;;21.34;71.20313;98562.91;;;;
2021/08/25 15:03:14;;;;;;;16;10.6;;;;;;;21.82;60.54688;98555.42;;;;
2021/08/25 15:13:14;;;;;;;15.3;9.4;;;;;;;22.96;62.55371;98542.98;;;;
2021/08/25 15:23:15;;;;;;;11.8;10.1;;;;;;;24.16;53.64063;98542.94;;;;
2021/08/25 15:33:16;;;;;;;16.9;9.6;;;;;;;24.53;54.34082;98525.89;;;;
2021/08/25 15:43:17;;;;;;;13;10;;;;;;;24.26;49.37207;98525.59;;;;
2021/08/25 15:53:18;;;;;;;12.9;10.1;;;;;;;24.09;49.12891;98511.88;;;;
2021/08/25 16:03:19;;;;;;;13.8;8.5;;;;;;;23.27;56.29297;98497.44;;;;
2021/08/25 16:13:20;;;;;;;10;8.3;;;;;;;23.56;59.12207;98488.02;;;;
2021/08/25 16:23:20;;;;;;;13.3;8.5;;;;;;;23.89;55.54102;98479.28;;;;
2021/08/25 16:33:21;;;;;;;16.1;11.9;;;;;;;22.83;54.88379;98460.14;;;;
2021/08/25 16:43:22;;;;;;;12.9;9;;;;;;;20.02;69.91699;98438.64;;;;
2021/08/25 16:53:22;;;;;;;12.4;7.8;;;;;;;18.66;78.63086;98425.31;;;;
2021/08/25 17:03:23;;;;;;;13.7;8.4;;;;;;;17.27;88.54004;98419.02;;;;
2021/08/25 17:13:23;;;;;;;12.2;8.2;;;;;;;16.27;96.625;98406.83;;;;
2021/08/25 17:23:23;;;;;;;14.1;8.4;;;;;;;15.56;100;98391.28;;;;
2021/08/25 17:33:22;;;;;;;12.2;7.4;;;;;;;14.86;100;98399.95;;;;
2021/08/25 17:43:22;;;;;;;12.3;7.7;;;;;;;14.38;100;98384.45;;;;
2021/08/25 17:53:22;;;;;;;8.3;7.1;;;;;;;13.86;100;98386.89;;;;
2021/08/25 18:03:21;;;;;;;26.5;10.8;;;;;;;13.35;100;98385.43;;;;
2021/08/25 18:13:21;;;;;;;15.6;8.9;;;;;;;12.91;100;98378.7;;;;
2021/08/25 18:23:20;;;;;;;11.8;10.2;;;;;;;12.59;100;98374.73;;;;
2021/08/25 18:33:20;;;;;;;17;9.1;;;;;;;12.34;100;98367.52;;;;
2021/08/25 18:43:19;;;;;;;16.9;9.4;;;;;;;12.14;100;98362.83;;;;
2021/08/25 18:53:18;;;;;;;26.5;11.6;;;;;;;11.88;100;98355.58;;;;
2021/08/25 19:03:17;;;;;;;16.5;11.4;;;;;;;11.79;100;98351.31;;;;
2021/08/25 19:13:17;;;;;;;15.3;11;;;;;;;11.55;100;98338.3;;;;
2021/08/25 19:23:16;;;;;;;20.9;11.2;;;;;;;11.41;100;98329.58;;;;
2021/08/25 19:33:15;;;;;;;17.6;11.8;;;;;;;11.34;100;98321.17;;;;
2021/08/25 19:43:14;;;;;;;14.4;12.6;;;;;;;11.25;100;98313.07;;;;
2021/08/25 19:53:13;;;;;;;22.3;12.6;;;;;;;11.07;100;98304.19;;;;
2021/08/25 20:03:12;;;;;;;21.4;13.4;;;;;;;11.02;100;98290.88;;;;
2021/08/25 20:13:12;;;;;;;19.7;13.1;;;;;;;10.9;100;98292.59;;;;
2021/08/25 20:23:11;;;;;;;14.8;12.1;;;;;;;10.75;100;98279.59;;;;
2021/08/25 20:33:10;;;;;;;16.9;12.3;;;;;;;10.75;100;98275.01;;;;
2021/08/25 20:43:09;;;;;;;17.6;13.8;;;;;;;10.79;100;98256.3;;;;
2021/08/25 20:53:08;;;;;;;17.5;14.6;;;;;;;10.81;100;98244.08;;;;
2021/08/25 21:03:07;;;;;;;14.9;11.9;;;;;;;10.78;100;98238.53;;;;
2021/08/25 21:13:06;;;;;;;15.2;11.8;;;;;;;10.71;100;98217.45;;;;
2021/08/25 21:23:05;;;;;;;12.3;10.4;;;;;;;10.64;100;98211.73;;;;
2021/08/25 21:33:06;;;;;;;16.8;12.7;;;;;;;10.57;100;98198.73;;;;
2021/08/25 21:43:03;;;;;;;14.7;11.4;;;;;;;10.53;100;98184.31;;;;
2021/08/25 21:53:02;;;;;;;17.9;12.8;;;;;;;10.53;100;98180.81;;;;
2021/08/25 22:03:01;;;;;;;13.1;10.3;;;;;;;10.52;100;98165.75;;;;
2021/08/25 22:13:01;;;;;;;17.8;11.7;;;;;;;10.48;100;98157.5;;;;
2021/08/25 22:23:01;;;;;;;15.8;12;;;;;;;10.55;100;98151.67;;;;
2021/08/25 22:33:01;;;;;;;15;11.1;;;;;;;10.57;100;98128.67;;;;
2021/08/25 22:42:57;;;;;;;15.8;10.6;;;;;;;10.65;100;98121.7;;;;
2021/08/25 22:52:56;;;;;;;13.1;9.9;;;;;;;10.65;100;98107.43;;;;
2021/08/25 23:02:55;;;;;;;15.2;11.4;;;;;;;10.65;100;98093.95;;;;
2021/08/25 23:12:54;;;;;;;14.2;10.7;;;;;;;10.59;100;98085.23;;;;
2021/08/25 23:22:53;;;;;;;14.3;9.2;;;;;;;10.58;100;98075.58;;;;
2021/08/25 23:32:53;;;;;;;12;9;;;;;;;10.63;100;98070.01;;;;
2021/08/25 23:42:51;;;;;;;12.6;10.3;;;;;;;10.55;100;98060.06;;;;
2021/08/25 23:52:53;;;;;;;15.2;10;;;;;;;10.46;100;98043.09;;;;
